Mound City, Missouri
Current Conditions -  °F | °C
As of 9:53 PM on Tuesday 27 Jan 2015 (Local Time) from KFNB Reporting Station
Clear Clear  
Wind Chill: 33°   Ceiling: Unl
Heat Index: 40°   Visibility: 10mi
Dew Point: 30°   Wind: 10mph
Humidity: 68%   Direction: 130°SE
Pressure: 30.04"   Gusts: NA
Location:  40.13°N, 95.23°W
Report Text: KFNB 280353Z AUTO 13009KT 10SM CLR 04/M01 A3004 RMK AO2 SLP177 T00441011
Loading
Personal Weather Stations






























Interactive Weather Map New forecast layout! Learn more

10-Day Weather Forecast

Advertisements
Track Severe Weather on mobile